createdAt,value
2018-10-17T00:00:37.389Z,14.65
2018-10-17T00:03:40.959Z,14.86
2018-10-17T00:06:44.604Z,15.04
2018-10-17T00:09:48.209Z,15.02
2018-10-17T00:12:51.887Z,14.85
2018-10-17T00:15:55.423Z,15.03
2018-10-17T00:18:59.077Z,15.16
2018-10-17T00:22:02.668Z,15.01
2018-10-17T00:25:06.879Z,14.98
2018-10-17T00:28:10.353Z,14.98
2018-10-17T00:31:14.003Z,14.94
2018-10-17T00:34:17.483Z,14.80
2018-10-17T00:37:21.119Z,14.69
2018-10-17T00:40:25.503Z,14.62
2018-10-17T00:43:29.149Z,14.49
2018-10-17T00:46:32.754Z,14.57
2018-10-17T00:49:36.240Z,14.54
2018-10-17T00:52:39.790Z,14.52
2018-10-17T00:55:43.365Z,14.39
2018-10-17T00:59:01.509Z,14.25
2018-10-17T01:02:05.137Z,14.20
2018-10-17T01:05:08.910Z,14.12
2018-10-17T01:08:12.424Z,14.12
2018-10-17T01:11:15.992Z,14.05
2018-10-17T01:14:19.555Z,14.01
2018-10-17T01:17:23.311Z,13.98
2018-10-17T01:20:26.861Z,14.06
2018-10-17T01:23:30.409Z,14.03
2018-10-17T01:26:33.995Z,13.98
2018-10-17T01:29:37.806Z,14.04
2018-10-17T01:32:41.333Z,14.01
2018-10-17T01:35:44.976Z,13.99
2018-10-17T01:38:48.652Z,13.95
2018-10-17T01:41:52.164Z,13.92
2018-10-17T01:44:55.719Z,13.91
2018-10-17T01:47:59.364Z,13.83
2018-10-17T01:51:03.107Z,13.84
2018-10-17T01:54:06.815Z,13.82
2018-10-17T01:57:10.485Z,13.81
2018-10-17T02:00:14.145Z,13.88
2018-10-17T02:03:17.656Z,13.83
2018-10-17T02:06:21.244Z,13.81
2018-10-17T02:09:24.818Z,13.82
2018-10-17T02:12:28.479Z,13.97
2018-10-17T02:15:32.059Z,14.05
2018-10-17T02:18:35.630Z,14.11
2018-10-17T02:21:39.199Z,14.07
2018-10-17T02:24:42.843Z,14.06
2018-10-17T02:27:46.409Z,13.96
2018-10-17T02:30:49.977Z,13.99
2018-10-17T02:33:53.549Z,14.09
2018-10-17T02:36:57.146Z,14.00
2018-10-17T02:40:00.761Z,14.12
2018-10-17T02:43:04.379Z,14.17
2018-10-17T02:46:07.840Z,14.08
2018-10-17T02:49:11.530Z,13.96
2018-10-17T02:52:14.984Z,13.83
2018-10-17T02:55:18.549Z,13.75
2018-10-17T02:58:22.064Z,13.62
2018-10-17T03:01:25.623Z,13.59
2018-10-17T03:04:29.311Z,13.66
2018-10-17T03:07:32.885Z,13.71
2018-10-17T03:10:36.387Z,13.71
2018-10-17T03:13:39.989Z,13.71
2018-10-17T03:16:43.540Z,13.92
2018-10-17T03:19:47.226Z,13.82
2018-10-17T03:22:50.858Z,13.82
2018-10-17T03:25:54.421Z,13.86
2018-10-17T03:28:58.039Z,13.98
2018-10-17T03:32:01.729Z,13.91
2018-10-17T03:35:05.688Z,13.86
2018-10-17T03:38:09.200Z,13.91
2018-10-17T03:41:12.794Z,13.93
2018-10-17T03:44:16.345Z,14.07
2018-10-17T03:47:19.914Z,14.11
2018-10-17T03:50:23.497Z,13.88
2018-10-17T03:53:27.146Z,13.77
2018-10-17T03:56:30.790Z,13.75
2018-10-17T03:59:34.463Z,13.82
2018-10-17T04:02:38.372Z,13.75
2018-10-17T04:05:41.916Z,13.62
2018-10-17T04:08:45.531Z,13.63
2018-10-17T04:11:49.194Z,13.68
2018-10-17T04:14:52.695Z,13.67
2018-10-17T04:17:56.485Z,13.53
2018-10-17T04:20:59.969Z,13.58
2018-10-17T04:24:03.555Z,13.56
2018-10-17T04:27:07.169Z,13.55
2018-10-17T04:30:10.787Z,13.60
2018-10-17T04:33:14.455Z,13.82
2018-10-17T04:36:18.117Z,14.08
2018-10-17T04:39:21.791Z,14.19
2018-10-17T04:42:25.459Z,14.07
2018-10-17T04:45:29.081Z,14.05
2018-10-17T04:48:32.934Z,14.10
2018-10-17T04:51:36.495Z,14.19
2018-10-17T04:54:40.232Z,14.14
2018-10-17T04:57:43.918Z,14.13
2018-10-17T05:00:47.500Z,14.27
2018-10-17T05:03:51.084Z,14.30
2018-10-17T05:06:54.666Z,14.47
2018-10-17T05:09:58.341Z,14.51
2018-10-17T05:13:02.112Z,14.52
2018-10-17T05:16:05.879Z,14.40
2018-10-17T05:19:09.518Z,14.40
2018-10-17T05:22:13.046Z,14.33
2018-10-17T05:25:16.674Z,14.14
2018-10-17T05:28:20.162Z,14.06
2018-10-17T05:31:23.855Z,14.08
2018-10-17T05:34:27.396Z,14.07
2018-10-17T05:37:31.166Z,14.15
2018-10-17T05:40:34.772Z,14.37
2018-10-17T05:43:38.346Z,14.62
2018-10-17T05:46:42.102Z,15.14
2018-10-17T05:49:45.681Z,15.18
2018-10-17T05:52:49.427Z,15.16
2018-10-17T05:55:52.992Z,15.04
2018-10-17T05:58:56.618Z,14.84
2018-10-17T06:02:01.212Z,14.66
2018-10-17T06:05:04.960Z,14.60
2018-10-17T06:08:08.647Z,14.63
2018-10-17T06:11:12.330Z,14.67
2018-10-17T06:14:16.810Z,14.74
2018-10-17T06:17:20.452Z,14.86
2018-10-17T06:20:24.040Z,14.83
2018-10-17T06:23:27.725Z,14.81
2018-10-17T06:26:31.387Z,14.87
2018-10-17T06:29:35.011Z,14.84
2018-10-17T06:32:38.796Z,14.89
2018-10-17T06:35:42.327Z,15.08
2018-10-17T06:38:46.065Z,15.21
2018-10-17T06:41:49.676Z,15.23
2018-10-17T06:44:53.272Z,15.38
2018-10-17T06:47:56.858Z,15.56
2018-10-17T06:51:00.474Z,15.89
2018-10-17T06:54:04.158Z,16.19
2018-10-17T06:57:07.617Z,16.42
2018-10-17T07:00:11.924Z,16.52
2018-10-17T07:03:15.540Z,16.35
2018-10-17T07:06:19.190Z,16.52
2018-10-17T07:09:22.768Z,16.47
2018-10-17T07:12:26.351Z,16.52
2018-10-17T07:15:30.122Z,16.72
2018-10-17T07:18:33.637Z,16.61
2018-10-17T07:21:37.232Z,16.64
2018-10-17T07:24:40.908Z,16.55
2018-10-17T07:27:44.370Z,16.45
2018-10-17T07:30:47.923Z,16.35
2018-10-17T07:33:51.631Z,16.27
2018-10-17T07:36:55.151Z,16.47
2018-10-17T07:39:58.770Z,16.74
2018-10-17T07:43:02.389Z,16.87
2018-10-17T07:46:06.187Z,17.11
2018-10-17T07:49:09.721Z,17.25
2018-10-17T07:52:13.330Z,17.39
2018-10-17T07:55:16.984Z,17.32
2018-10-17T07:58:20.549Z,17.32
2018-10-17T08:01:24.135Z,17.55
2018-10-17T08:04:27.731Z,17.61
2018-10-17T08:07:31.391Z,17.73
2018-10-17T08:10:34.930Z,17.63
2018-10-17T08:13:38.517Z,17.83
2018-10-17T08:16:42.316Z,17.82
2018-10-17T08:19:45.960Z,17.68
2018-10-17T08:22:49.482Z,17.93
2018-10-17T08:25:53.042Z,18.07
2018-10-17T08:28:56.711Z,18.20
2018-10-17T08:32:00.306Z,18.12
2018-10-17T08:35:04.066Z,18.05
2018-10-17T08:38:07.789Z,18.15
2018-10-17T08:41:11.345Z,18.09
2018-10-17T08:44:15.256Z,18.10
2018-10-17T08:47:18.745Z,17.75
2018-10-17T08:50:22.596Z,17.97
2018-10-17T08:53:26.376Z,18.11
2018-10-17T08:56:29.977Z,18.11
2018-10-17T08:59:33.643Z,18.29
2018-10-17T09:02:37.213Z,18.42
2018-10-17T09:05:40.826Z,18.52
2018-10-17T09:08:44.448Z,18.70
2018-10-17T09:11:48.066Z,19.11
2018-10-17T09:14:51.848Z,19.23
2018-10-17T09:17:55.538Z,19.22
2018-10-17T09:20:59.475Z,19.20
2018-10-17T09:24:02.726Z,19.20
2018-10-17T09:27:06.387Z,19.28
2018-10-17T09:30:11.364Z,19.27
2018-10-17T09:33:15.001Z,19.39
2018-10-17T09:36:18.704Z,19.26
2018-10-17T09:39:22.227Z,19.21
2018-10-17T09:42:25.751Z,19.06
2018-10-17T09:45:29.337Z,18.97
2018-10-17T09:48:32.967Z,19.13
2018-10-17T09:51:36.546Z,19.10
2018-10-17T09:54:40.197Z,19.28
2018-10-17T09:57:43.786Z,19.43
2018-10-17T10:00:52.553Z,19.44
2018-10-17T10:03:56.166Z,19.16
2018-10-17T10:06:59.841Z,18.95
2018-10-17T10:10:03.568Z,19.06
2018-10-17T10:13:07.223Z,19.12
2018-10-17T10:16:10.943Z,19.27
2018-10-17T10:19:14.513Z,19.16
2018-10-17T10:22:18.182Z,19.29
2018-10-17T10:25:28.019Z,19.32
2018-10-17T10:28:31.722Z,18.87
2018-10-17T10:31:35.374Z,18.72
2018-10-17T10:34:39.083Z,18.66
2018-10-17T10:37:42.717Z,18.83
2018-10-17T10:40:46.541Z,18.93
2018-10-17T10:43:50.041Z,19.02
2018-10-17T10:46:53.631Z,18.95
2018-10-17T10:49:57.295Z,19.20
2018-10-17T10:53:01.130Z,19.33
2018-10-17T10:56:05.301Z,19.41
2018-10-17T10:59:08.842Z,19.48
2018-10-17T11:02:12.453Z,19.47
2018-10-17T11:05:16.209Z,19.16
2018-10-17T11:08:19.747Z,19.22
2018-10-17T11:11:23.326Z,19.26
2018-10-17T11:14:26.996Z,19.45
2018-10-17T11:17:30.641Z,19.48
2018-10-17T11:20:34.443Z,19.47
2018-10-17T11:23:38.029Z,19.55
2018-10-17T11:26:41.671Z,19.69
2018-10-17T11:29:45.267Z,19.67
2018-10-17T11:32:48.942Z,19.40
2018-10-17T11:35:52.526Z,19.57
2018-10-17T11:38:56.141Z,19.63
2018-10-17T11:41:59.728Z,19.63
2018-10-17T11:45:03.427Z,19.82
2018-10-17T11:48:07.019Z,19.82
2018-10-17T11:51:10.851Z,19.85
2018-10-17T11:54:14.493Z,19.91
2018-10-17T11:57:18.325Z,19.83
2018-10-17T12:00:21.847Z,19.91
2018-10-17T12:03:25.533Z,19.94
2018-10-17T12:06:29.276Z,19.85
2018-10-17T12:09:32.728Z,19.88
2018-10-17T12:12:36.782Z,19.79
2018-10-17T12:15:43.165Z,19.82
2018-10-17T12:18:46.876Z,19.72
2018-10-17T12:21:50.468Z,19.70
2018-10-17T12:24:54.145Z,19.70
2018-10-17T12:27:58.089Z,19.71
2018-10-17T12:31:01.658Z,19.67
2018-10-17T12:34:05.563Z,19.73
2018-10-17T12:37:09.286Z,19.66
2018-10-17T12:40:12.965Z,19.81
2018-10-17T12:43:16.532Z,19.83
2018-10-17T12:46:20.281Z,19.84
2018-10-17T12:49:24.016Z,19.89
2018-10-17T12:52:27.750Z,19.86
2018-10-17T12:55:31.342Z,19.84
2018-10-17T12:58:34.961Z,19.98
2018-10-17T13:01:38.698Z,19.96
2018-10-17T13:04:42.407Z,19.89
2018-10-17T13:07:46.096Z,19.90
2018-10-17T13:10:49.780Z,19.85
2018-10-17T13:13:53.376Z,19.82
2018-10-17T13:16:57.092Z,19.82
2018-10-17T13:20:00.707Z,19.82
2018-10-17T13:23:04.492Z,19.92
2018-10-17T13:26:08.080Z,19.88
2018-10-17T13:29:11.714Z,19.92
2018-10-17T13:32:15.429Z,19.94
2018-10-17T13:35:19.288Z,20.05
2018-10-17T13:38:22.697Z,19.91
2018-10-17T13:41:26.393Z,20.00
2018-10-17T13:44:30.161Z,20.17
2018-10-17T13:47:33.791Z,20.25
2018-10-17T13:50:37.448Z,20.36
2018-10-17T13:53:41.299Z,20.37
2018-10-17T13:56:44.868Z,20.45
2018-10-17T13:59:48.580Z,20.57
2018-10-17T14:02:52.196Z,20.57
2018-10-17T14:05:55.785Z,20.50
2018-10-17T14:08:59.472Z,20.30
2018-10-17T14:12:03.173Z,20.35
2018-10-17T14:15:06.957Z,20.33
2018-10-17T14:18:10.723Z,20.24
2018-10-17T14:21:14.479Z,20.31
2018-10-17T14:24:18.165Z,20.35
2018-10-17T14:27:21.717Z,20.39
2018-10-17T14:30:25.414Z,20.28
2018-10-17T14:33:28.979Z,20.26
2018-10-17T14:36:32.673Z,20.13
2018-10-17T14:39:36.307Z,20.11
2018-10-17T14:42:39.932Z,20.11
2018-10-17T14:45:43.649Z,20.12
2018-10-17T14:48:47.223Z,20.04
2018-10-17T14:51:50.996Z,19.99
2018-10-17T14:54:54.539Z,20.06
2018-10-17T14:57:58.163Z,20.04
2018-10-17T15:01:01.939Z,20.02
2018-10-17T15:04:05.729Z,19.98
2018-10-17T15:07:09.313Z,19.96
2018-10-17T15:10:13.112Z,19.94
2018-10-17T15:13:16.751Z,19.80
2018-10-17T15:16:20.411Z,19.67
2018-10-17T15:19:24.143Z,19.65
2018-10-17T15:22:28.051Z,19.59
2018-10-17T15:25:31.958Z,19.55
2018-10-17T15:28:35.598Z,19.55
2018-10-17T15:31:39.294Z,19.40
2018-10-17T15:34:43.368Z,19.30
2018-10-17T15:37:46.925Z,19.27
2018-10-17T15:40:50.534Z,19.27
2018-10-17T15:43:54.134Z,19.11
2018-10-17T15:46:58.645Z,19.03
2018-10-17T15:50:03.174Z,18.89
2018-10-17T15:53:06.959Z,18.73
2018-10-17T15:56:10.638Z,18.64
2018-10-17T15:59:14.297Z,18.54
2018-10-17T16:02:18.135Z,18.50
2018-10-17T16:05:21.837Z,18.47
2018-10-17T16:08:25.472Z,18.43
2018-10-17T16:11:29.161Z,18.26
2018-10-17T16:14:32.875Z,18.17
2018-10-17T16:17:36.643Z,18.05
2018-10-17T16:20:40.348Z,17.92
2018-10-17T16:23:44.064Z,17.74
2018-10-17T16:26:47.775Z,17.63
2018-10-17T16:29:51.405Z,17.52
2018-10-17T16:32:55.099Z,17.44
2018-10-17T16:35:58.850Z,17.36
2018-10-17T16:39:02.511Z,17.30
2018-10-17T16:42:06.684Z,17.19
2018-10-17T16:45:11.200Z,17.32
2018-10-17T16:48:14.958Z,17.20
2018-10-17T16:51:18.561Z,17.15
2018-10-17T16:54:22.248Z,17.21
2018-10-17T16:57:26.051Z,17.17
2018-10-17T17:00:29.818Z,17.36
2018-10-17T17:03:33.553Z,17.18
2018-10-17T17:06:37.186Z,16.99
2018-10-17T17:09:40.841Z,17.00
2018-10-17T17:12:44.630Z,16.98
2018-10-17T17:15:48.225Z,16.85
2018-10-17T17:18:51.852Z,16.78
2018-10-17T17:21:55.588Z,16.89
2018-10-17T17:24:59.323Z,16.86
2018-10-17T17:28:03.053Z,16.82
2018-10-17T17:31:06.958Z,16.90
2018-10-17T17:34:10.640Z,17.35
2018-10-17T17:37:14.314Z,17.51
2018-10-17T17:40:18.031Z,17.46
2018-10-17T17:43:21.711Z,17.90
2018-10-17T17:46:25.384Z,17.84
2018-10-17T17:49:29.275Z,17.87
2018-10-17T17:52:33.130Z,17.81
2018-10-17T17:55:36.836Z,17.76
2018-10-17T17:58:40.670Z,17.67
2018-10-17T18:01:44.444Z,17.76
2018-10-17T18:04:48.254Z,17.72
2018-10-17T18:07:52.008Z,17.61
2018-10-17T18:10:55.703Z,17.53
2018-10-17T18:13:59.636Z,17.54
2018-10-17T18:17:03.526Z,17.59
2018-10-17T18:20:07.528Z,17.47
2018-10-17T18:23:11.290Z,17.36
2018-10-17T18:26:15.243Z,17.37
2018-10-17T18:29:19.242Z,17.26
2018-10-17T18:32:22.988Z,17.20
2018-10-17T18:35:26.806Z,17.13
2018-10-17T18:38:30.868Z,17.19
2018-10-17T18:41:41.183Z,17.14
2018-10-17T18:44:44.904Z,17.08
2018-10-17T18:47:48.802Z,17.06
2018-10-17T18:50:52.530Z,16.94
2018-10-17T18:53:56.333Z,16.90
2018-10-17T18:57:00.223Z,16.89
2018-10-17T19:00:04.069Z,16.88
2018-10-17T19:03:07.829Z,16.86
2018-10-17T19:06:11.708Z,16.75
2018-10-17T19:09:15.593Z,16.71
2018-10-17T19:12:19.484Z,16.63
2018-10-17T19:15:23.080Z,16.55
2018-10-17T19:18:27.042Z,16.47
2018-10-17T19:21:30.779Z,16.36
2018-10-17T19:24:34.662Z,16.21
2018-10-17T19:27:38.336Z,16.18
2018-10-17T19:30:42.018Z,16.19
2018-10-17T19:33:45.840Z,16.05
2018-10-17T19:36:49.754Z,15.96
2018-10-17T19:39:53.598Z,15.84
2018-10-17T19:42:57.324Z,15.78
2018-10-17T19:46:01.126Z,15.73
2018-10-17T19:49:05.174Z,15.65
2018-10-17T19:52:09.008Z,15.58
2018-10-17T19:55:12.723Z,15.40
2018-10-17T19:58:16.472Z,15.33
2018-10-17T20:01:20.182Z,15.36
2018-10-17T20:04:25.963Z,15.22
2018-10-17T20:07:29.672Z,15.15
2018-10-17T20:10:33.447Z,15.06
2018-10-17T20:13:37.346Z,15.01
2018-10-17T20:16:41.070Z,14.95
2018-10-17T20:19:44.852Z,14.82
2018-10-17T20:22:48.473Z,14.81
2018-10-17T20:25:52.258Z,14.68
2018-10-17T20:32:37.105Z,14.49
2018-10-17T20:39:53.188Z,14.37
2018-10-17T21:07:33.114Z,13.98
2018-10-17T21:10:36.753Z,13.92
2018-10-17T21:13:40.538Z,13.81
2018-10-17T21:16:44.479Z,13.75
2018-10-17T21:19:48.146Z,13.71
2018-10-17T21:22:51.776Z,13.77
2018-10-17T21:25:55.421Z,13.61
2018-10-17T21:28:59.039Z,13.49
2018-10-17T21:32:02.879Z,13.47
2018-10-17T21:35:07.056Z,13.56
2018-10-17T21:38:12.182Z,13.63
2018-10-17T21:41:15.955Z,13.66
2018-10-17T21:44:19.507Z,13.62
2018-10-17T21:47:23.197Z,13.49
2018-10-17T21:50:26.711Z,13.48
2018-10-17T21:53:30.430Z,13.44
2018-10-17T21:56:34.002Z,13.38
2018-10-17T21:59:37.699Z,13.35
2018-10-17T22:02:41.399Z,13.36
2018-10-17T22:05:45.273Z,13.36
2018-10-17T22:08:48.866Z,13.32
2018-10-17T22:11:52.477Z,13.27
2018-10-17T22:14:56.075Z,13.22
2018-10-17T22:17:59.669Z,13.08
2018-10-17T22:21:03.235Z,13.18
2018-10-17T22:24:06.995Z,13.06
2018-10-17T22:27:10.602Z,13.04
2018-10-17T22:30:14.315Z,13.06
2018-10-17T22:33:18.063Z,13.05
2018-10-17T22:36:21.783Z,12.94
2018-10-17T22:39:25.445Z,12.90
2018-10-17T22:42:29.019Z,12.79
2018-10-17T22:45:32.594Z,12.78
2018-10-17T22:48:36.253Z,12.75
2018-10-17T22:51:40.338Z,12.63
2018-10-17T22:54:44.002Z,12.63
2018-10-17T22:57:47.725Z,12.59
2018-10-17T23:00:51.333Z,12.60
2018-10-17T23:03:54.993Z,12.58
2018-10-17T23:06:58.559Z,12.65
2018-10-17T23:10:02.165Z,12.55
2018-10-17T23:13:06.030Z,12.57
2018-10-17T23:16:09.654Z,12.49
2018-10-17T23:19:13.239Z,12.57
2018-10-17T23:22:18.103Z,12.56
2018-10-17T23:25:21.843Z,12.62
2018-10-17T23:28:25.667Z,12.63
2018-10-17T23:31:29.220Z,12.63
2018-10-17T23:34:32.891Z,12.57
2018-10-17T23:37:36.545Z,12.58
2018-10-17T23:40:40.100Z,12.48
2018-10-17T23:43:43.684Z,12.47
2018-10-17T23:46:47.217Z,12.38
2018-10-17T23:49:50.809Z,12.32
2018-10-17T23:52:54.682Z,12.35
2018-10-17T23:55:58.295Z,12.33
2018-10-17T23:59:01.974Z,12.40
